sensor_id;sensor_type;location;lat;lon;timestamp;temperature;humidity
22917;DHT22;11624;53.250;7.456;2024-01-06T00:00:12;8.31;58.16
22917;DHT22;11624;53.250;7.456;2024-01-06T00:06:00;8.34;58.27
22917;DHT22;11624;53.250;7.456;2024-01-06T00:08:30;8.33;58.37
22917;DHT22;11624;53.250;7.456;2024-01-06T00:10:58;8.38;58.09
22917;DHT22;11624;53.250;7.456;2024-01-06T00:13:30;8.36;58.03
22917;DHT22;11624;53.250;7.456;2024-01-06T00:16:01;8.32;58.06
22917;DHT22;11624;53.250;7.456;2024-01-06T00:18:39;8.36;58.18
22917;DHT22;11624;53.250;7.456;2024-01-06T00:21:08;8.32;58.26
22917;DHT22;11624;53.250;7.456;2024-01-06T00:23:36;8.34;58.25
22917;DHT22;11624;53.250;7.456;2024-01-06T00:26:09;8.35;57.78
22917;DHT22;11624;53.250;7.456;2024-01-06T00:28:38;8.41;57.82
22917;DHT22;11624;53.250;7.456;2024-01-06T00:31:53;8.32;57.60
22917;DHT22;11624;53.250;7.456;2024-01-06T00:34:21;8.47;57.76
22917;DHT22;11624;53.250;7.456;2024-01-06T00:36:49;8.39;58.00
22917;DHT22;11624;53.250;7.456;2024-01-06T00:39:18;8.37;58.03
22917;DHT22;11624;53.250;7.456;2024-01-06T00:41:46;8.44;58.03
22917;DHT22;11624;53.250;7.456;2024-01-06T00:44:14;8.43;57.95
22917;DHT22;11624;53.250;7.456;2024-01-06T00:46:43;8.42;58.06
22917;DHT22;11624;53.250;7.456;2024-01-06T00:49:12;8.44;57.94
22917;DHT22;11624;53.250;7.456;2024-01-06T00:51:40;8.46;58.01
22917;DHT22;11624;53.250;7.456;2024-01-06T00:54:09;8.44;57.76
22917;DHT22;11624;53.250;7.456;2024-01-06T00:56:37;8.37;58.01
22917;DHT22;11624;53.250;7.456;2024-01-06T00:59:05;8.38;57.87
22917;DHT22;11624;53.250;7.456;2024-01-06T01:01:33;8.41;57.73
22917;DHT22;11624;53.250;7.456;2024-01-06T01:04:02;8.35;57.70
22917;DHT22;11624;53.250;7.456;2024-01-06T01:06:32;8.34;57.72
22917;DHT22;11624;53.250;7.456;2024-01-06T01:09:00;8.36;57.50
22917;DHT22;11624;53.250;7.456;2024-01-06T01:11:28;8.33;57.38
22917;DHT22;11624;53.250;7.456;2024-01-06T01:13:56;8.30;57.27
22917;DHT22;11624;53.250;7.456;2024-01-06T01:16:25;8.18;57.46
22917;DHT22;11624;53.250;7.456;2024-01-06T01:18:53;8.14;57.54
22917;DHT22;11624;53.250;7.456;2024-01-06T01:21:21;8.07;57.58
22917;DHT22;11624;53.250;7.456;2024-01-06T01:23:51;8.07;57.46
22917;DHT22;11624;53.250;7.456;2024-01-06T01:26:19;8.04;57.74
22917;DHT22;11624;53.250;7.456;2024-01-06T01:28:47;8.06;57.45
22917;DHT22;11624;53.250;7.456;2024-01-06T01:31:15;8.05;57.19
22917;DHT22;11624;53.250;7.456;2024-01-06T01:33:44;8.02;57.39
22917;DHT22;11624;53.250;7.456;2024-01-06T01:36:12;8.01;57.45
22917;DHT22;11624;53.250;7.456;2024-01-06T01:38:41;7.99;57.44
22917;DHT22;11624;53.250;7.456;2024-01-06T01:41:10;8.01;57.26
22917;DHT22;11624;53.250;7.456;2024-01-06T01:43:38;8.00;57.50
22917;DHT22;11624;53.250;7.456;2024-01-06T01:46:06;7.93;57.55
22917;DHT22;11624;53.250;7.456;2024-01-06T01:48:35;7.93;57.68
22917;DHT22;11624;53.250;7.456;2024-01-06T01:51:03;7.93;57.69
22917;DHT22;11624;53.250;7.456;2024-01-06T01:53:32;7.94;57.64
22917;DHT22;11624;53.250;7.456;2024-01-06T01:56:00;7.98;57.87
22917;DHT22;11624;53.250;7.456;2024-01-06T01:58:32;8.06;57.21
22917;DHT22;11624;53.250;7.456;2024-01-06T02:01:01;7.98;57.50
22917;DHT22;11624;53.250;7.456;2024-01-06T02:03:30;7.92;57.71
22917;DHT22;11624;53.250;7.456;2024-01-06T02:05:58;7.92;57.75
22917;DHT22;11624;53.250;7.456;2024-01-06T02:08:26;7.91;57.86
22917;DHT22;11624;53.250;7.456;2024-01-06T02:10:55;7.91;57.91
22917;DHT22;11624;53.250;7.456;2024-01-06T02:13:23;7.90;57.66
22917;DHT22;11624;53.250;7.456;2024-01-06T02:15:53;7.83;57.72
22917;DHT22;11624;53.250;7.456;2024-01-06T02:18:23;7.79;57.91
22917;DHT22;11624;53.250;7.456;2024-01-06T02:20:53;7.76;57.90
22917;DHT22;11624;53.250;7.456;2024-01-06T02:23:27;7.79;57.71
22917;DHT22;11624;53.250;7.456;2024-01-06T02:25:55;7.79;57.97
22917;DHT22;11624;53.250;7.456;2024-01-06T02:28:24;7.75;57.96
22917;DHT22;11624;53.250;7.456;2024-01-06T02:30:52;7.74;57.91
22917;DHT22;11624;53.250;7.456;2024-01-06T02:33:21;7.77;57.76
22917;DHT22;11624;53.250;7.456;2024-01-06T02:35:51;7.73;57.84
22917;DHT22;11624;53.250;7.456;2024-01-06T02:38:19;7.78;57.77
22917;DHT22;11624;53.250;7.456;2024-01-06T02:40:49;7.79;57.69
22917;DHT22;11624;53.250;7.456;2024-01-06T02:43:17;7.78;57.91
22917;DHT22;11624;53.250;7.456;2024-01-06T02:45:45;7.81;57.71
22917;DHT22;11624;53.250;7.456;2024-01-06T02:48:15;7.76;57.81
22917;DHT22;11624;53.250;7.456;2024-01-06T02:50:43;7.76;57.81
22917;DHT22;11624;53.250;7.456;2024-01-06T02:53:12;7.78;57.27
22917;DHT22;11624;53.250;7.456;2024-01-06T02:55:40;7.68;57.69
22917;DHT22;11624;53.250;7.456;2024-01-06T02:58:10;7.69;57.80
22917;DHT22;11624;53.250;7.456;2024-01-06T03:00:38;7.70;57.55
22917;DHT22;11624;53.250;7.456;2024-01-06T03:03:06;7.69;57.52
22917;DHT22;11624;53.250;7.456;2024-01-06T03:05:34;7.67;57.64
22917;DHT22;11624;53.250;7.456;2024-01-06T03:08:04;7.67;57.72
22917;DHT22;11624;53.250;7.456;2024-01-06T03:10:33;7.65;57.95
22917;DHT22;11624;53.250;7.456;2024-01-06T03:13:03;7.70;57.78
22917;DHT22;11624;53.250;7.456;2024-01-06T03:15:33;7.74;57.19
22917;DHT22;11624;53.250;7.456;2024-01-06T03:18:01;7.68;57.70
22917;DHT22;11624;53.250;7.456;2024-01-06T03:20:30;7.65;57.69
22917;DHT22;11624;53.250;7.456;2024-01-06T03:22:58;7.71;57.65
22917;DHT22;11624;53.250;7.456;2024-01-06T03:25:26;7.71;57.54
22917;DHT22;11624;53.250;7.456;2024-01-06T03:27:54;7.73;57.18
22917;DHT22;11624;53.250;7.456;2024-01-06T03:30:22;7.65;57.39
22917;DHT22;11624;53.250;7.456;2024-01-06T03:32:52;7.63;57.48
22917;DHT22;11624;53.250;7.456;2024-01-06T03:35:20;7.64;57.33
22917;DHT22;11624;53.250;7.456;2024-01-06T03:37:48;7.54;57.67
22917;DHT22;11624;53.250;7.456;2024-01-06T03:40:17;7.54;57.69
22917;DHT22;11624;53.250;7.456;2024-01-06T03:42:45;7.57;57.71
22917;DHT22;11624;53.250;7.456;2024-01-06T03:45:13;7.50;57.96
22917;DHT22;11624;53.250;7.456;2024-01-06T03:47:41;7.54;57.84
22917;DHT22;11624;53.250;7.456;2024-01-06T03:50:11;7.56;57.67
22917;DHT22;11624;53.250;7.456;2024-01-06T03:52:40;7.57;57.65
22917;DHT22;11624;53.250;7.456;2024-01-06T03:55:08;7.60;57.64
22917;DHT22;11624;53.250;7.456;2024-01-06T03:57:37;7.57;57.51
22917;DHT22;11624;53.250;7.456;2024-01-06T04:00:06;7.52;57.65
22917;DHT22;11624;53.250;7.456;2024-01-06T04:02:34;7.53;57.48
22917;DHT22;11624;53.250;7.456;2024-01-06T04:05:03;7.52;57.52
22917;DHT22;11624;53.250;7.456;2024-01-06T04:07:33;7.48;57.63
22917;DHT22;11624;53.250;7.456;2024-01-06T04:10:01;7.54;57.43
22917;DHT22;11624;53.250;7.456;2024-01-06T04:12:30;7.52;57.21
22917;DHT22;11624;53.250;7.456;2024-01-06T04:14:58;7.42;57.58
22917;DHT22;11624;53.250;7.456;2024-01-06T04:17:26;7.44;57.84
22917;DHT22;11624;53.250;7.456;2024-01-06T04:19:54;7.46;57.77
22917;DHT22;11624;53.250;7.456;2024-01-06T04:22:23;7.44;57.71
22917;DHT22;11624;53.250;7.456;2024-01-06T04:24:53;7.43;57.67
22917;DHT22;11624;53.250;7.456;2024-01-06T04:27:21;7.44;57.67
22917;DHT22;11624;53.250;7.456;2024-01-06T04:29:49;7.41;57.55
22917;DHT22;11624;53.250;7.456;2024-01-06T04:32:20;7.38;57.83
22917;DHT22;11624;53.250;7.456;2024-01-06T04:34:48;7.43;57.67
22917;DHT22;11624;53.250;7.456;2024-01-06T04:37:16;7.40;57.70
22917;DHT22;11624;53.250;7.456;2024-01-06T04:39:44;7.38;57.75
22917;DHT22;11624;53.250;7.456;2024-01-06T04:42:14;7.35;57.77
22917;DHT22;11624;53.250;7.456;2024-01-06T04:44:42;7.37;57.77
22917;DHT22;11624;53.250;7.456;2024-01-06T04:47:10;7.31;57.96
22917;DHT22;11624;53.250;7.456;2024-01-06T04:49:39;7.33;57.84
22917;DHT22;11624;53.250;7.456;2024-01-06T04:52:07;7.28;57.73
22917;DHT22;11624;53.250;7.456;2024-01-06T04:54:35;7.27;57.90
22917;DHT22;11624;53.250;7.456;2024-01-06T04:57:04;7.30;57.96
22917;DHT22;11624;53.250;7.456;2024-01-06T04:59:33;7.32;57.86
22917;DHT22;11624;53.250;7.456;2024-01-06T05:02:02;7.30;58.23
22917;DHT22;11624;53.250;7.456;2024-01-06T05:04:30;7.32;58.19
22917;DHT22;11624;53.250;7.456;2024-01-06T05:06:59;7.39;58.02
22917;DHT22;11624;53.250;7.456;2024-01-06T05:09:28;7.41;58.03
22917;DHT22;11624;53.250;7.456;2024-01-06T05:11:56;7.35;58.01
22917;DHT22;11624;53.250;7.456;2024-01-06T05:14:24;7.34;57.87
22917;DHT22;11624;53.250;7.456;2024-01-06T05:16:54;7.38;57.73
22917;DHT22;11624;53.250;7.456;2024-01-06T05:19:22;7.28;58.00
22917;DHT22;11624;53.250;7.456;2024-01-06T05:21:50;7.33;58.14
22917;DHT22;11624;53.250;7.456;2024-01-06T05:24:18;7.35;57.92
22917;DHT22;11624;53.250;7.456;2024-01-06T05:26:47;7.32;58.00
22917;DHT22;11624;53.250;7.456;2024-01-06T05:29:15;7.32;58.04
22917;DHT22;11624;53.250;7.456;2024-01-06T05:31:44;7.39;57.79
22917;DHT22;11624;53.250;7.456;2024-01-06T05:34:15;7.39;57.95
22917;DHT22;11624;53.250;7.456;2024-01-06T05:36:43;7.40;58.00
22917;DHT22;11624;53.250;7.456;2024-01-06T05:39:12;7.42;57.77
22917;DHT22;11624;53.250;7.456;2024-01-06T05:41:40;7.41;57.74
22917;DHT22;11624;53.250;7.456;2024-01-06T05:44:09;7.40;57.86
22917;DHT22;11624;53.250;7.456;2024-01-06T05:46:37;7.45;57.67
22917;DHT22;11624;53.250;7.456;2024-01-06T05:49:05;7.44;57.89
22917;DHT22;11624;53.250;7.456;2024-01-06T05:51:35;7.46;57.61
22917;DHT22;11624;53.250;7.456;2024-01-06T05:54:03;7.49;57.11
22917;DHT22;11624;53.250;7.456;2024-01-06T05:56:31;7.46;57.32
22917;DHT22;11624;53.250;7.456;2024-01-06T05:58:59;7.46;57.25
22917;DHT22;11624;53.250;7.456;2024-01-06T06:01:29;7.43;57.67
22917;DHT22;11624;53.250;7.456;2024-01-06T06:03:58;7.52;57.42
22917;DHT22;11624;53.250;7.456;2024-01-06T06:06:26;7.48;57.42
22917;DHT22;11624;53.250;7.456;2024-01-06T06:08:56;7.47;57.46
22917;DHT22;11624;53.250;7.456;2024-01-06T06:11:24;7.42;57.68
22917;DHT22;11624;53.250;7.456;2024-01-06T06:13:52;7.44;57.64
22917;DHT22;11624;53.250;7.456;2024-01-06T06:16:20;7.47;57.69
22917;DHT22;11624;53.250;7.456;2024-01-06T06:18:48;7.50;57.51
22917;DHT22;11624;53.250;7.456;2024-01-06T06:21:17;7.46;57.49
22917;DHT22;11624;53.250;7.456;2024-01-06T06:23:45;7.43;57.64
22917;DHT22;11624;53.250;7.456;2024-01-06T06:26:15;7.47;57.30
22917;DHT22;11624;53.250;7.456;2024-01-06T06:28:43;7.46;57.58
22917;DHT22;11624;53.250;7.456;2024-01-06T06:31:11;7.52;57.56
22917;DHT22;11624;53.250;7.456;2024-01-06T06:33:40;7.52;57.36
22917;DHT22;11624;53.250;7.456;2024-01-06T06:36:10;7.49;57.50
22917;DHT22;11624;53.250;7.456;2024-01-06T06:38:38;7.50;57.56
22917;DHT22;11624;53.250;7.456;2024-01-06T06:41:06;7.53;57.64
22917;DHT22;11624;53.250;7.456;2024-01-06T06:43:36;7.57;57.60
22917;DHT22;11624;53.250;7.456;2024-01-06T06:46:04;7.55;57.60
22917;DHT22;11624;53.250;7.456;2024-01-06T06:48:32;7.56;57.58
22917;DHT22;11624;53.250;7.456;2024-01-06T06:51:03;7.55;57.55
22917;DHT22;11624;53.250;7.456;2024-01-06T06:53:31;7.54;57.38
22917;DHT22;11624;53.250;7.456;2024-01-06T06:55:59;7.57;57.35
22917;DHT22;11624;53.250;7.456;2024-01-06T06:58:27;7.55;57.29
22917;DHT22;11624;53.250;7.456;2024-01-06T07:00:57;7.56;57.39
22917;DHT22;11624;53.250;7.456;2024-01-06T07:03:25;7.61;57.41
22917;DHT22;11624;53.250;7.456;2024-01-06T07:05:54;7.68;57.03
22917;DHT22;11624;53.250;7.456;2024-01-06T07:08:22;7.65;57.26
22917;DHT22;11624;53.250;7.456;2024-01-06T07:10:50;7.67;57.11
22917;DHT22;11624;53.250;7.456;2024-01-06T07:13:19;7.69;57.15
22917;DHT22;11624;53.250;7.456;2024-01-06T07:15:47;7.65;56.80
22917;DHT22;11624;53.250;7.456;2024-01-06T07:18:19;7.60;57.00
22917;DHT22;11624;53.250;7.456;2024-01-06T07:20:50;7.64;56.82
22917;DHT22;11624;53.250;7.456;2024-01-06T07:23:18;7.61;56.87
22917;DHT22;11624;53.250;7.456;2024-01-06T07:25:46;7.61;56.85
22917;DHT22;11624;53.250;7.456;2024-01-06T07:28:16;7.58;56.90
22917;DHT22;11624;53.250;7.456;2024-01-06T07:30:44;7.57;56.91
22917;DHT22;11624;53.250;7.456;2024-01-06T07:33:13;7.58;57.15
22917;DHT22;11624;53.250;7.456;2024-01-06T07:35:42;7.56;57.16
22917;DHT22;11624;53.250;7.456;2024-01-06T07:38:10;7.56;56.90
22917;DHT22;11624;53.250;7.456;2024-01-06T07:40:39;7.55;57.07
22917;DHT22;11624;53.250;7.456;2024-01-06T07:43:08;7.53;57.04
22917;DHT22;11624;53.250;7.456;2024-01-06T07:45:36;7.55;57.03
22917;DHT22;11624;53.250;7.456;2024-01-06T07:48:06;7.53;57.21
22917;DHT22;11624;53.250;7.456;2024-01-06T07:50:34;7.59;56.77
22917;DHT22;11624;53.250;7.456;2024-01-06T07:53:04;7.55;56.86
22917;DHT22;11624;53.250;7.456;2024-01-06T07:55:32;7.53;56.95
22917;DHT22;11624;53.250;7.456;2024-01-06T07:58:00;7.49;57.23
22917;DHT22;11624;53.250;7.456;2024-01-06T08:00:28;7.49;57.12
22917;DHT22;11624;53.250;7.456;2024-01-06T08:02:57;7.50;57.12
22917;DHT22;11624;53.250;7.456;2024-01-06T08:05:25;7.47;57.19
22917;DHT22;11624;53.250;7.456;2024-01-06T08:07:53;7.50;57.10
22917;DHT22;11624;53.250;7.456;2024-01-06T08:10:23;7.52;57.03
22917;DHT22;11624;53.250;7.456;2024-01-06T08:12:51;7.50;57.16
22917;DHT22;11624;53.250;7.456;2024-01-06T08:15:20;7.54;57.15
22917;DHT22;11624;53.250;7.456;2024-01-06T08:17:49;7.56;57.17
22917;DHT22;11624;53.250;7.456;2024-01-06T08:20:17;7.57;57.17
22917;DHT22;11624;53.250;7.456;2024-01-06T08:22:45;7.56;57.27
22917;DHT22;11624;53.250;7.456;2024-01-06T08:25:14;7.55;57.29
22917;DHT22;11624;53.250;7.456;2024-01-06T08:27:45;7.57;57.30
22917;DHT22;11624;53.250;7.456;2024-01-06T08:30:14;7.57;57.11
22917;DHT22;11624;53.250;7.456;2024-01-06T08:32:43;7.57;57.30
22917;DHT22;11624;53.250;7.456;2024-01-06T08:35:11;7.57;57.13
22917;DHT22;11624;53.250;7.456;2024-01-06T08:37:40;7.61;56.88
22917;DHT22;11624;53.250;7.456;2024-01-06T08:40:09;7.60;57.03
22917;DHT22;11624;53.250;7.456;2024-01-06T08:42:37;7.61;56.81
22917;DHT22;11624;53.250;7.456;2024-01-06T08:45:08;7.56;56.83
22917;DHT22;11624;53.250;7.456;2024-01-06T08:47:37;7.57;57.06
22917;DHT22;11624;53.250;7.456;2024-01-06T08:50:06;7.55;57.16
22917;DHT22;11624;53.250;7.456;2024-01-06T08:52:34;7.58;57.22
22917;DHT22;11624;53.250;7.456;2024-01-06T08:55:03;7.62;57.29
22917;DHT22;11624;53.250;7.456;2024-01-06T08:57:32;7.63;57.15
22917;DHT22;11624;53.250;7.456;2024-01-06T09:00:00;7.62;57.13
22917;DHT22;11624;53.250;7.456;2024-01-06T09:02:30;7.62;57.10
22917;DHT22;11624;53.250;7.456;2024-01-06T09:04:58;7.65;56.99
22917;DHT22;11624;53.250;7.456;2024-01-06T09:07:26;7.68;56.98
22917;DHT22;11624;53.250;7.456;2024-01-06T09:09:54;7.65;56.97
22917;DHT22;11624;53.250;7.456;2024-01-06T09:12:22;7.67;57.10
22917;DHT22;11624;53.250;7.456;2024-01-06T09:14:51;7.63;57.08
22917;DHT22;11624;53.250;7.456;2024-01-06T09:17:19;7.60;57.07
22917;DHT22;11624;53.250;7.456;2024-01-06T09:19:48;7.68;56.96
22917;DHT22;11624;53.250;7.456;2024-01-06T09:22:17;7.73;56.33
22917;DHT22;11624;53.250;7.456;2024-01-06T09:24:45;7.62;56.95
22917;DHT22;11624;53.250;7.456;2024-01-06T09:27:13;7.65;57.16
22917;DHT22;11624;53.250;7.456;2024-01-06T09:29:42;7.72;56.97
22917;DHT22;11624;53.250;7.456;2024-01-06T09:32:10;7.77;56.57
22917;DHT22;11624;53.250;7.456;2024-01-06T09:34:39;7.68;56.97
22917;DHT22;11624;53.250;7.456;2024-01-06T09:37:09;7.65;57.03
22917;DHT22;11624;53.250;7.456;2024-01-06T09:39:37;7.71;56.83
22917;DHT22;11624;53.250;7.456;2024-01-06T09:42:06;7.71;56.77
22917;DHT22;11624;53.250;7.456;2024-01-06T09:44:35;7.68;56.88
22917;DHT22;11624;53.250;7.456;2024-01-06T09:47:04;7.69;56.97
22917;DHT22;11624;53.250;7.456;2024-01-06T09:49:32;7.71;56.95
22917;DHT22;11624;53.250;7.456;2024-01-06T09:52:13;7.73;56.33
22917;DHT22;11624;53.250;7.456;2024-01-06T09:54:48;7.76;56.10
22917;DHT22;11624;53.250;7.456;2024-01-06T09:57:18;7.74;56.47
22917;DHT22;11624;53.250;7.456;2024-01-06T09:59:47;7.65;56.90
22917;DHT22;11624;53.250;7.456;2024-01-06T10:02:16;7.71;56.82
22917;DHT22;11624;53.250;7.456;2024-01-06T10:04:45;7.68;56.84
22917;DHT22;11624;53.250;7.456;2024-01-06T10:07:14;7.62;57.07
22917;DHT22;11624;53.250;7.456;2024-01-06T10:09:43;7.64;57.16
22917;DHT22;11624;53.250;7.456;2024-01-06T10:12:11;7.72;57.03
22917;DHT22;11624;53.250;7.456;2024-01-06T10:14:39;7.77;56.93
22917;DHT22;11624;53.250;7.456;2024-01-06T10:17:07;7.79;56.94
22917;DHT22;11624;53.250;7.456;2024-01-06T10:19:36;7.84;56.74
22917;DHT22;11624;53.250;7.456;2024-01-06T10:22:05;7.87;56.65
22917;DHT22;11624;53.250;7.456;2024-01-06T10:24:37;7.88;56.27
22917;DHT22;11624;53.250;7.456;2024-01-06T10:27:05;7.87;56.25
22917;DHT22;11624;53.250;7.456;2024-01-06T10:29:36;7.86;56.45
22917;DHT22;11624;53.250;7.456;2024-01-06T10:32:04;7.88;56.45
22917;DHT22;11624;53.250;7.456;2024-01-06T10:34:33;7.90;56.37
22917;DHT22;11624;53.250;7.456;2024-01-06T10:37:04;7.92;56.44
22917;DHT22;11624;53.250;7.456;2024-01-06T10:39:35;7.94;56.44
22917;DHT22;11624;53.250;7.456;2024-01-06T10:42:06;8.03;55.92
22917;DHT22;11624;53.250;7.456;2024-01-06T10:44:35;8.00;55.87
22917;DHT22;11624;53.250;7.456;2024-01-06T10:47:04;8.02;56.14
22917;DHT22;11624;53.250;7.456;2024-01-06T10:49:34;8.04;55.25
22917;DHT22;11624;53.250;7.456;2024-01-06T10:52:04;7.96;55.69
22917;DHT22;11624;53.250;7.456;2024-01-06T10:54:36;7.88;56.01
22917;DHT22;11624;53.250;7.456;2024-01-06T10:57:06;7.90;56.21
22917;DHT22;11624;53.250;7.456;2024-01-06T10:59:38;8.03;55.53
22917;DHT22;11624;53.250;7.456;2024-01-06T11:02:07;8.02;55.84
22917;DHT22;11624;53.250;7.456;2024-01-06T11:04:36;8.04;55.44
22917;DHT22;11624;53.250;7.456;2024-01-06T11:07:05;8.04;55.46
22917;DHT22;11624;53.250;7.456;2024-01-06T11:09:39;8.02;55.47
22917;DHT22;11624;53.250;7.456;2024-01-06T11:12:09;8.04;55.34
22917;DHT22;11624;53.250;7.456;2024-01-06T11:14:37;8.06;55.43
22917;DHT22;11624;53.250;7.456;2024-01-06T11:17:04;8.07;55.10
22917;DHT22;11624;53.250;7.456;2024-01-06T11:19:43;7.96;54.53
22917;DHT22;11624;53.250;7.456;2024-01-06T11:22:24;7.83;55.04
22917;DHT22;11624;53.250;7.456;2024-01-06T11:24:56;7.94;55.42
22917;DHT22;11624;53.250;7.456;2024-01-06T11:27:26;8.02;55.39
22917;DHT22;11624;53.250;7.456;2024-01-06T11:29:56;8.02;55.52
22917;DHT22;11624;53.250;7.456;2024-01-06T11:32:29;8.05;55.02
22917;DHT22;11624;53.250;7.456;2024-01-06T11:35:05;8.04;54.96
22917;DHT22;11624;53.250;7.456;2024-01-06T11:37:36;8.07;55.56
22917;DHT22;11624;53.250;7.456;2024-01-06T11:40:10;8.07;55.03
22917;DHT22;11624;53.250;7.456;2024-01-06T11:42:45;8.04;55.71
22917;DHT22;11624;53.250;7.456;2024-01-06T11:45:14;8.04;55.68
22917;DHT22;11624;53.250;7.456;2024-01-06T11:47:47;8.01;54.95
22917;DHT22;11624;53.250;7.456;2024-01-06T11:50:16;7.97;55.34
22917;DHT22;11624;53.250;7.456;2024-01-06T11:52:45;7.93;55.58
22917;DHT22;11624;53.250;7.456;2024-01-06T11:55:17;8.01;55.34
22917;DHT22;11624;53.250;7.456;2024-01-06T11:57:45;8.02;55.33
22917;DHT22;11624;53.250;7.456;2024-01-06T12:00:15;7.99;55.49
22917;DHT22;11624;53.250;7.456;2024-01-06T12:02:43;7.93;55.43
22917;DHT22;11624;53.250;7.456;2024-01-06T12:05:15;7.97;55.10
22917;DHT22;11624;53.250;7.456;2024-01-06T12:07:53;7.93;54.91
22917;DHT22;11624;53.250;7.456;2024-01-06T12:10:27;7.96;55.39
22917;DHT22;11624;53.250;7.456;2024-01-06T12:13:00;8.01;55.11
22917;DHT22;11624;53.250;7.456;2024-01-06T12:15:30;7.92;55.11
22917;DHT22;11624;53.250;7.456;2024-01-06T12:17:59;7.89;55.13
22917;DHT22;11624;53.250;7.456;2024-01-06T12:20:31;7.87;55.28
22917;DHT22;11624;53.250;7.456;2024-01-06T12:23:00;7.86;55.69
22917;DHT22;11624;53.250;7.456;2024-01-06T12:25:31;7.91;55.55
22917;DHT22;11624;53.250;7.456;2024-01-06T12:28:06;7.98;55.37
22917;DHT22;11624;53.250;7.456;2024-01-06T12:30:37;7.94;55.10
22917;DHT22;11624;53.250;7.456;2024-01-06T12:33:06;7.97;54.97
22917;DHT22;11624;53.250;7.456;2024-01-06T12:35:34;7.92;55.03
22917;DHT22;11624;53.250;7.456;2024-01-06T12:38:03;7.92;54.71
22917;DHT22;11624;53.250;7.456;2024-01-06T12:40:36;7.87;54.94
22917;DHT22;11624;53.250;7.456;2024-01-06T12:43:05;7.78;55.35
22917;DHT22;11624;53.250;7.456;2024-01-06T12:45:34;7.78;55.23
22917;DHT22;11624;53.250;7.456;2024-01-06T12:48:02;7.76;55.37
22917;DHT22;11624;53.250;7.456;2024-01-06T12:50:30;7.75;55.21
22917;DHT22;11624;53.250;7.456;2024-01-06T12:52:59;7.69;55.35
22917;DHT22;11624;53.250;7.456;2024-01-06T12:55:27;7.68;55.42
22917;DHT22;11624;53.250;7.456;2024-01-06T12:57:56;7.67;55.29
22917;DHT22;11624;53.250;7.456;2024-01-06T13:00:28;7.68;55.29
22917;DHT22;11624;53.250;7.456;2024-01-06T13:02:58;7.63;55.18
22917;DHT22;11624;53.250;7.456;2024-01-06T13:05:26;7.63;55.36
22917;DHT22;11624;53.250;7.456;2024-01-06T13:07:54;7.63;55.38
22917;DHT22;11624;53.250;7.456;2024-01-06T13:10:24;7.64;55.38
22917;DHT22;11624;53.250;7.456;2024-01-06T13:12:52;7.64;55.42
22917;DHT22;11624;53.250;7.456;2024-01-06T13:15:22;7.69;55.23
22917;DHT22;11624;53.250;7.456;2024-01-06T13:17:50;7.64;55.33
22917;DHT22;11624;53.250;7.456;2024-01-06T13:20:19;7.67;54.94
22917;DHT22;11624;53.250;7.456;2024-01-06T13:22:48;7.67;55.28
22917;DHT22;11624;53.250;7.456;2024-01-06T13:25:18;7.68;55.39
22917;DHT22;11624;53.250;7.456;2024-01-06T13:27:47;7.71;55.23
22917;DHT22;11624;53.250;7.456;2024-01-06T13:30:16;7.73;55.11
22917;DHT22;11624;53.250;7.456;2024-01-06T13:32:46;7.69;55.16
22917;DHT22;11624;53.250;7.456;2024-01-06T13:35:15;7.70;55.25
22917;DHT22;11624;53.250;7.456;2024-01-06T13:37:44;7.69;54.99
22917;DHT22;11624;53.250;7.456;2024-01-06T13:40:15;7.65;55.19
22917;DHT22;11624;53.250;7.456;2024-01-06T13:42:46;7.59;55.42
22917;DHT22;11624;53.250;7.456;2024-01-06T13:45:15;7.62;55.60
22917;DHT22;11624;53.250;7.456;2024-01-06T13:47:43;7.69;55.33
22917;DHT22;11624;53.250;7.456;2024-01-06T13:50:15;7.65;55.23
22917;DHT22;11624;53.250;7.456;2024-01-06T13:52:44;7.63;55.47
22917;DHT22;11624;53.250;7.456;2024-01-06T13:55:13;7.62;55.52
22917;DHT22;11624;53.250;7.456;2024-01-06T13:57:41;7.58;55.59
22917;DHT22;11624;53.250;7.456;2024-01-06T14:00:10;7.56;55.66
22917;DHT22;11624;53.250;7.456;2024-01-06T14:02:47;7.54;55.58
22917;DHT22;11624;53.250;7.456;2024-01-06T14:05:16;7.53;55.71
22917;DHT22;11624;53.250;7.456;2024-01-06T14:07:46;7.53;55.69
22917;DHT22;11624;53.250;7.456;2024-01-06T14:10:17;7.58;55.64
22917;DHT22;11624;53.250;7.456;2024-01-06T14:12:45;7.52;55.78
22917;DHT22;11624;53.250;7.456;2024-01-06T14:15:14;7.49;55.88
22917;DHT22;11624;53.250;7.456;2024-01-06T14:17:42;7.53;55.81
22917;DHT22;11624;53.250;7.456;2024-01-06T14:20:17;7.53;55.87
22917;DHT22;11624;53.250;7.456;2024-01-06T14:22:46;7.53;55.77
22917;DHT22;11624;53.250;7.456;2024-01-06T14:25:15;7.52;55.99
22917;DHT22;11624;53.250;7.456;2024-01-06T14:27:45;7.54;55.62
22917;DHT22;11624;53.250;7.456;2024-01-06T14:30:14;7.48;55.91
22917;DHT22;11624;53.250;7.456;2024-01-06T14:32:42;7.48;56.06
22917;DHT22;11624;53.250;7.456;2024-01-06T14:35:11;7.47;56.12
22917;DHT22;11624;53.250;7.456;2024-01-06T14:37:43;7.52;55.95
22917;DHT22;11624;53.250;7.456;2024-01-06T14:40:12;7.53;55.57
22917;DHT22;11624;53.250;7.456;2024-01-06T14:42:40;7.46;55.94
22917;DHT22;11624;53.250;7.456;2024-01-06T14:45:09;7.50;56.06
22917;DHT22;11624;53.250;7.456;2024-01-06T14:47:37;7.54;55.83
22917;DHT22;11624;53.250;7.456;2024-01-06T14:50:07;7.47;55.76
22917;DHT22;11624;53.250;7.456;2024-01-06T14:52:35;7.49;55.99
22917;DHT22;11624;53.250;7.456;2024-01-06T14:55:05;7.55;55.53
22917;DHT22;11624;53.250;7.456;2024-01-06T14:57:34;7.47;55.92
22917;DHT22;11624;53.250;7.456;2024-01-06T15:00:02;7.52;55.94
22917;DHT22;11624;53.250;7.456;2024-01-06T15:02:31;7.54;55.67
22917;DHT22;11624;53.250;7.456;2024-01-06T15:04:59;7.53;55.13
22917;DHT22;11624;53.250;7.456;2024-01-06T15:07:27;7.45;55.72
22917;DHT22;11624;53.250;7.456;2024-01-06T15:09:59;7.44;55.95
22917;DHT22;11624;53.250;7.456;2024-01-06T15:12:32;7.48;55.86
22917;DHT22;11624;53.250;7.456;2024-01-06T15:15:00;7.41;55.98
22917;DHT22;11624;53.250;7.456;2024-01-06T15:17:28;7.47;55.71
22917;DHT22;11624;53.250;7.456;2024-01-06T15:19:56;7.46;55.58
22917;DHT22;11624;53.250;7.456;2024-01-06T15:22:25;7.44;55.72
22917;DHT22;11624;53.250;7.456;2024-01-06T15:24:53;7.46;55.65
22917;DHT22;11624;53.250;7.456;2024-01-06T15:27:24;7.47;55.41
22917;DHT22;11624;53.250;7.456;2024-01-06T15:29:54;7.43;55.41
22917;DHT22;11624;53.250;7.456;2024-01-06T15:32:22;7.46;55.49
22917;DHT22;11624;53.250;7.456;2024-01-06T15:34:50;7.44;55.16
22917;DHT22;11624;53.250;7.456;2024-01-06T15:37:19;7.40;55.13
22917;DHT22;11624;53.250;7.456;2024-01-06T15:39:47;7.29;55.40
22917;DHT22;11624;53.250;7.456;2024-01-06T15:42:16;7.32;55.20
22917;DHT22;11624;53.250;7.456;2024-01-06T15:44:44;7.29;55.15
22917;DHT22;11624;53.250;7.456;2024-01-06T15:47:13;7.31;55.16
22917;DHT22;11624;53.250;7.456;2024-01-06T15:49:42;7.26;55.21
22917;DHT22;11624;53.250;7.456;2024-01-06T15:52:10;7.24;54.91
22917;DHT22;11624;53.250;7.456;2024-01-06T15:54:38;7.19;55.01
22917;DHT22;11624;53.250;7.456;2024-01-06T15:57:06;7.09;55.21
22917;DHT22;11624;53.250;7.456;2024-01-06T15:59:36;7.13;55.18